sensor_id;sensor_type;location;lat;lon;timestamp;pressure;altitude;pressure_sealevel;temperature;humidity
28588;BME280;15787;49.662;10.162;2022-07-12T00:02:16;99812.19;;;13.16;98.53
28588;BME280;15787;49.662;10.162;2022-07-12T00:04:44;99815.16;;;13.28;98.26
28588;BME280;15787;49.662;10.162;2022-07-12T00:07:14;99807.97;;;13.47;97.94
28588;BME280;15787;49.662;10.162;2022-07-12T00:09:41;99820.91;;;13.41;96.94
28588;BME280;15787;49.662;10.162;2022-07-12T00:12:09;99804.94;;;13.18;98.97
28588;BME280;15787;49.662;10.162;2022-07-12T00:14:37;99808.91;;;13.21;98.70
28588;BME280;15787;49.662;10.162;2022-07-12T00:17:05;99813.81;;;13.37;97.80
28588;BME280;15787;49.662;10.162;2022-07-12T00:19:33;99804.09;;;12.98;99.29
28588;BME280;15787;49.662;10.162;2022-07-12T00:22:01;99809.69;;;13.21;99.09
28588;BME280;15787;49.662;10.162;2022-07-12T00:24:30;99811.78;;;12.94;99.28
28588;BME280;15787;49.662;10.162;2022-07-12T00:26:58;99808.56;;;12.96;100.00
28588;BME280;15787;49.662;10.162;2022-07-12T00:29:26;99807.09;;;12.88;100.00
28588;BME280;15787;49.662;10.162;2022-07-12T00:31:54;99812.44;;;13.02;100.00
28588;BME280;15787;49.662;10.162;2022-07-12T00:34:21;99813.41;;;12.92;100.00
28588;BME280;15787;49.662;10.162;2022-07-12T00:36:49;99820.84;;;13.02;100.00
28588;BME280;15787;49.662;10.162;2022-07-12T00:39:17;99819.56;;;13.29;98.31
28588;BME280;15787;49.662;10.162;2022-07-12T00:41:49;99814.88;;;13.23;97.65
28588;BME280;15787;49.662;10.162;2022-07-12T00:44:17;99809.47;;;12.89;98.89
28588;BME280;15787;49.662;10.162;2022-07-12T00:46:45;99807.25;;;12.81;100.00
28588;BME280;15787;49.662;10.162;2022-07-12T00:49:13;99797.22;;;12.80;100.00
28588;BME280;15787;49.662;10.162;2022-07-12T00:51:42;99805.53;;;12.63;100.00
28588;BME280;15787;49.662;10.162;2022-07-12T00:54:10;99807.41;;;12.70;100.00
28588;BME280;15787;49.662;10.162;2022-07-12T00:56:39;99808.56;;;12.73;100.00
28588;BME280;15787;49.662;10.162;2022-07-12T00:59:09;99807.78;;;12.72;100.00
28588;BME280;15787;49.662;10.162;2022-07-12T01:01:37;99794.44;;;12.56;100.00
28588;BME280;15787;49.662;10.162;2022-07-12T01:04:05;99796.25;;;12.66;100.00
28588;BME280;15787;49.662;10.162;2022-07-12T01:06:35;99793.47;;;12.66;100.00
28588;BME280;15787;49.662;10.162;2022-07-12T01:09:03;99792.72;;;12.86;98.80
28588;BME280;15787;49.662;10.162;2022-07-12T01:11:31;99800.59;;;12.71;99.01
28588;BME280;15787;49.662;10.162;2022-07-12T01:14:00;99799.97;;;12.83;97.92
28588;BME280;15787;49.662;10.162;2022-07-12T01:16:30;99795.53;;;12.62;98.11
28588;BME280;15787;49.662;10.162;2022-07-12T01:18:59;99799.66;;;12.31;100.00
28588;BME280;15787;49.662;10.162;2022-07-12T01:21:31;99803.81;;;12.46;100.00
28588;BME280;15787;49.662;10.162;2022-07-12T01:24:00;99798.28;;;12.20;100.00
28588;BME280;15787;49.662;10.162;2022-07-12T01:26:28;99793.06;;;12.18;100.00
28588;BME280;15787;49.662;10.162;2022-07-12T01:28:57;99805.03;;;12.22;100.00
28588;BME280;15787;49.662;10.162;2022-07-12T01:31:26;99801.88;;;12.20;100.00
28588;BME280;15787;49.662;10.162;2022-07-12T01:33:54;99794.66;;;12.19;100.00
28588;BME280;15787;49.662;10.162;2022-07-12T01:36:22;99799.84;;;12.21;100.00
28588;BME280;15787;49.662;10.162;2022-07-12T01:38:50;99810.78;;;12.12;100.00
28588;BME280;15787;49.662;10.162;2022-07-12T01:41:19;99803.31;;;12.05;100.00
28588;BME280;15787;49.662;10.162;2022-07-12T01:43:47;99813.53;;;12.15;100.00
28588;BME280;15787;49.662;10.162;2022-07-12T01:46:15;99808.03;;;12.35;100.00
28588;BME280;15787;49.662;10.162;2022-07-12T01:48:43;99811.91;;;12.41;99.65
28588;BME280;15787;49.662;10.162;2022-07-12T01:51:11;99806.22;;;12.21;100.00
28588;BME280;15787;49.662;10.162;2022-07-12T01:53:38;99806.44;;;12.34;99.68
28588;BME280;15787;49.662;10.162;2022-07-12T01:56:06;99802.09;;;12.02;100.00
28588;BME280;15787;49.662;10.162;2022-07-12T01:58:37;99802.88;;;12.07;100.00
28588;BME280;15787;49.662;10.162;2022-07-12T02:01:05;99800.53;;;12.01;100.00
28588;BME280;15787;49.662;10.162;2022-07-12T02:03:34;99803.50;;;11.91;100.00
28588;BME280;15787;49.662;10.162;2022-07-12T02:06:02;99807.31;;;12.04;100.00
28588;BME280;15787;49.662;10.162;2022-07-12T02:08:30;99802.06;;;12.06;100.00
28588;BME280;15787;49.662;10.162;2022-07-12T02:10:58;99797.25;;;11.80;100.00
28588;BME280;15787;49.662;10.162;2022-07-12T02:13:26;99791.56;;;11.87;100.00
28588;BME280;15787;49.662;10.162;2022-07-12T02:15:56;99797.94;;;11.87;100.00
28588;BME280;15787;49.662;10.162;2022-07-12T02:18:24;99794.78;;;11.85;100.00
28588;BME280;15787;49.662;10.162;2022-07-12T02:20:51;99797.78;;;11.98;100.00
28588;BME280;15787;49.662;10.162;2022-07-12T02:23:19;99803.38;;;11.98;100.00
28588;BME280;15787;49.662;10.162;2022-07-12T02:25:47;99803.75;;;12.00;100.00
28588;BME280;15787;49.662;10.162;2022-07-12T02:28:15;99801.06;;;11.93;100.00
28588;BME280;15787;49.662;10.162;2022-07-12T02:30:43;99799.41;;;11.69;100.00
28588;BME280;15787;49.662;10.162;2022-07-12T02:33:12;99803.75;;;12.00;100.00
28588;BME280;15787;49.662;10.162;2022-07-12T02:35:42;99804.63;;;11.67;100.00
28588;BME280;15787;49.662;10.162;2022-07-12T02:38:10;99796.28;;;11.60;100.00
28588;BME280;15787;49.662;10.162;2022-07-12T02:40:38;99790.22;;;11.68;100.00
28588;BME280;15787;49.662;10.162;2022-07-12T02:43:21;99795.53;;;11.59;100.00
28588;BME280;15787;49.662;10.162;2022-07-12T02:45:49;99808.63;;;11.32;100.00
28588;BME280;15787;49.662;10.162;2022-07-12T02:48:19;99793.91;;;11.28;100.00
28588;BME280;15787;49.662;10.162;2022-07-12T02:50:47;99787.44;;;11.68;100.00
28588;BME280;15787;49.662;10.162;2022-07-12T02:53:15;99790.81;;;11.53;100.00
28588;BME280;15787;49.662;10.162;2022-07-12T02:55:43;99798.06;;;11.47;100.00
28588;BME280;15787;49.662;10.162;2022-07-12T02:58:12;99802.75;;;11.57;100.00
28588;BME280;15787;49.662;10.162;2022-07-12T03:00:40;99804.31;;;11.58;100.00
28588;BME280;15787;49.662;10.162;2022-07-12T03:03:08;99796.03;;;11.51;99.61
28588;BME280;15787;49.662;10.162;2022-07-12T03:05:38;99803.13;;;11.25;100.00
28588;BME280;15787;49.662;10.162;2022-07-12T03:08:06;99805.72;;;11.42;100.00
28588;BME280;15787;49.662;10.162;2022-07-12T03:10:35;99802.59;;;11.71;99.52
28588;BME280;15787;49.662;10.162;2022-07-12T03:13:03;99802.59;;;11.37;100.00
28588;BME280;15787;49.662;10.162;2022-07-12T03:15:32;99812.72;;;11.24;100.00
28588;BME280;15787;49.662;10.162;2022-07-12T03:18:00;99815.78;;;11.70;99.58
28588;BME280;15787;49.662;10.162;2022-07-12T03:20:29;99817.44;;;11.64;98.14
28588;BME280;15787;49.662;10.162;2022-07-12T03:22:58;99820.03;;;11.48;98.62
28588;BME280;15787;49.662;10.162;2022-07-12T03:25:25;99822.16;;;11.37;100.00
28588;BME280;15787;49.662;10.162;2022-07-12T03:27:53;99816.84;;;11.16;100.00
28588;BME280;15787;49.662;10.162;2022-07-12T03:30:21;99816.81;;;11.50;100.00
28588;BME280;15787;49.662;10.162;2022-07-12T03:32:49;99815.16;;;11.56;100.00
28588;BME280;15787;49.662;10.162;2022-07-12T03:35:17;99809.06;;;11.30;100.00
28588;BME280;15787;49.662;10.162;2022-07-12T03:37:47;99812.84;;;11.47;100.00
28588;BME280;15787;49.662;10.162;2022-07-12T03:40:18;99807.34;;;11.40;100.00
28588;BME280;15787;49.662;10.162;2022-07-12T03:42:47;99814.66;;;11.30;100.00
28588;BME280;15787;49.662;10.162;2022-07-12T03:45:16;99811.97;;;11.20;100.00
28588;BME280;15787;49.662;10.162;2022-07-12T03:47:44;99816.22;;;11.31;100.00
28588;BME280;15787;49.662;10.162;2022-07-12T03:50:13;99804.59;;;11.36;100.00
28588;BME280;15787;49.662;10.162;2022-07-12T03:52:42;99804.38;;;11.54;100.00
28588;BME280;15787;49.662;10.162;2022-07-12T03:55:11;99800.59;;;11.71;100.00
28588;BME280;15787;49.662;10.162;2022-07-12T03:57:41;99811.41;;;11.69;100.00
28588;BME280;15787;49.662;10.162;2022-07-12T04:00:10;99817.63;;;11.47;100.00
28588;BME280;15787;49.662;10.162;2022-07-12T04:02:39;99821.72;;;11.72;100.00
28588;BME280;15787;49.662;10.162;2022-07-12T04:05:09;99830.34;;;11.85;100.00
28588;BME280;15787;49.662;10.162;2022-07-12T04:07:37;99838.03;;;11.81;100.00
28588;BME280;15787;49.662;10.162;2022-07-12T04:10:06;99832.19;;;11.68;100.00
28588;BME280;15787;49.662;10.162;2022-07-12T04:12:34;99840.19;;;11.66;100.00
28588;BME280;15787;49.662;10.162;2022-07-12T04:15:05;99838.81;;;11.81;100.00
28588;BME280;15787;49.662;10.162;2022-07-12T04:17:33;99853.50;;;11.89;99.03
28588;BME280;15787;49.662;10.162;2022-07-12T04:20:01;99853.75;;;11.98;97.94
28588;BME280;15787;49.662;10.162;2022-07-12T04:22:29;99858.06;;;11.76;98.00
28588;BME280;15787;49.662;10.162;2022-07-12T04:24:57;99854.56;;;11.65;98.48
28588;BME280;15787;49.662;10.162;2022-07-12T04:27:25;99852.88;;;11.40;100.00
28588;BME280;15787;49.662;10.162;2022-07-12T04:29:53;99859.72;;;11.70;100.00
28588;BME280;15787;49.662;10.162;2022-07-12T04:32:29;99857.28;;;11.75;100.00
28588;BME280;15787;49.662;10.162;2022-07-12T04:34:57;99868.97;;;11.67;100.00
28588;BME280;15787;49.662;10.162;2022-07-12T04:37:25;99856.44;;;11.78;100.00
28588;BME280;15787;49.662;10.162;2022-07-12T04:39:53;99874.22;;;11.61;100.00
28588;BME280;15787;49.662;10.162;2022-07-12T04:42:20;99872.91;;;11.73;100.00
28588;BME280;15787;49.662;10.162;2022-07-12T04:44:48;99875.03;;;11.62;100.00
28588;BME280;15787;49.662;10.162;2022-07-12T04:47:16;99867.28;;;11.73;100.00
28588;BME280;15787;49.662;10.162;2022-07-12T04:49:45;99869.06;;;11.90;100.00
28588;BME280;15787;49.662;10.162;2022-07-12T04:52:13;99866.19;;;11.63;100.00
28588;BME280;15787;49.662;10.162;2022-07-12T04:54:41;99867.34;;;11.99;100.00
28588;BME280;15787;49.662;10.162;2022-07-12T04:57:09;99863.94;;;12.15;100.00
28588;BME280;15787;49.662;10.162;2022-07-12T04:59:37;99866.66;;;12.19;100.00
28588;BME280;15787;49.662;10.162;2022-07-12T05:02:05;99873.09;;;12.16;100.00
28588;BME280;15787;49.662;10.162;2022-07-12T05:04:33;99875.56;;;12.40;100.00
28588;BME280;15787;49.662;10.162;2022-07-12T05:07:02;99875.91;;;12.42;100.00
28588;BME280;15787;49.662;10.162;2022-07-12T05:09:30;99876.59;;;11.96;100.00
28588;BME280;15787;49.662;10.162;2022-07-12T05:11:58;99875.72;;;12.30;100.00
28588;BME280;15787;49.662;10.162;2022-07-12T05:14:27;99881.53;;;12.42;100.00
28588;BME280;15787;49.662;10.162;2022-07-12T05:16:55;99875.31;;;12.54;100.00
28588;BME280;15787;49.662;10.162;2022-07-12T05:19:23;99895.09;;;12.71;100.00
28588;BME280;15787;49.662;10.162;2022-07-12T05:21:51;99889.16;;;12.65;100.00
28588;BME280;15787;49.662;10.162;2022-07-12T05:24:20;99889.28;;;13.04;100.00
28588;BME280;15787;49.662;10.162;2022-07-12T05:26:47;99893.88;;;13.18;100.00
28588;BME280;15787;49.662;10.162;2022-07-12T05:29:16;99893.09;;;13.17;100.00
28588;BME280;15787;49.662;10.162;2022-07-12T05:31:43;99892.03;;;13.31;100.00
28588;BME280;15787;49.662;10.162;2022-07-12T05:34:11;99889.75;;;13.46;100.00
28588;BME280;15787;49.662;10.162;2022-07-12T05:36:39;99895.41;;;13.22;100.00
28588;BME280;15787;49.662;10.162;2022-07-12T05:39:07;99898.16;;;13.46;100.00
28588;BME280;15787;49.662;10.162;2022-07-12T05:41:36;99902.00;;;13.75;100.00
28588;BME280;15787;49.662;10.162;2022-07-12T05:44:04;99904.66;;;14.02;100.00
28588;BME280;15787;49.662;10.162;2022-07-12T05:46:33;99902.41;;;14.13;100.00
28588;BME280;15787;49.662;10.162;2022-07-12T05:49:01;99907.50;;;14.18;100.00
28588;BME280;15787;49.662;10.162;2022-07-12T05:51:29;99905.84;;;14.20;100.00
28588;BME280;15787;49.662;10.162;2022-07-12T05:54:14;99901.59;;;14.32;100.00
28588;BME280;15787;49.662;10.162;2022-07-12T05:56:43;99901.00;;;14.40;100.00
28588;BME280;15787;49.662;10.162;2022-07-12T05:59:11;99899.63;;;14.29;100.00
28588;BME280;15787;49.662;10.162;2022-07-12T06:01:39;99903.13;;;14.52;100.00
28588;BME280;15787;49.662;10.162;2022-07-12T06:04:07;99903.56;;;14.67;100.00
28588;BME280;15787;49.662;10.162;2022-07-12T06:06:35;99909.47;;;14.73;100.00
28588;BME280;15787;49.662;10.162;2022-07-12T06:09:03;99897.44;;;15.04;100.00
28588;BME280;15787;49.662;10.162;2022-07-12T06:11:31;99906.84;;;14.98;100.00
28588;BME280;15787;49.662;10.162;2022-07-12T06:14:01;99915.13;;;15.05;100.00
28588;BME280;15787;49.662;10.162;2022-07-12T06:16:29;99914.38;;;15.17;100.00
28588;BME280;15787;49.662;10.162;2022-07-12T06:18:57;99911.91;;;15.35;100.00
28588;BME280;15787;49.662;10.162;2022-07-12T06:21:25;99924.81;;;15.49;100.00
28588;BME280;15787;49.662;10.162;2022-07-12T06:23:53;99925.25;;;15.63;100.00
28588;BME280;15787;49.662;10.162;2022-07-12T06:26:21;99937.13;;;15.84;100.00
28588;BME280;15787;49.662;10.162;2022-07-12T06:28:49;99940.69;;;16.13;99.92
28588;BME280;15787;49.662;10.162;2022-07-12T06:31:19;99941.53;;;16.26;99.05
28588;BME280;15787;49.662;10.162;2022-07-12T06:33:46;99937.75;;;16.58;99.25
28588;BME280;15787;49.662;10.162;2022-07-12T06:36:14;99940.22;;;16.56;98.39
28588;BME280;15787;49.662;10.162;2022-07-12T06:38:42;99944.53;;;16.73;97.44
28588;BME280;15787;49.662;10.162;2022-07-12T06:41:15;99927.38;;;16.92;96.87
28588;BME280;15787;49.662;10.162;2022-07-12T06:43:43;99929.28;;;17.08;95.92
28588;BME280;15787;49.662;10.162;2022-07-12T06:46:11;99927.97;;;17.22;94.93
28588;BME280;15787;49.662;10.162;2022-07-12T06:48:40;99943.72;;;17.44;93.92
28588;BME280;15787;49.662;10.162;2022-07-12T06:51:08;99942.38;;;17.83;92.66
28588;BME280;15787;49.662;10.162;2022-07-12T06:53:36;99952.56;;;18.24;91.57
28588;BME280;15787;49.662;10.162;2022-07-12T06:56:04;99945.66;;;18.47;90.26
28588;BME280;15787;49.662;10.162;2022-07-12T06:58:32;99947.06;;;18.73;88.83
28588;BME280;15787;49.662;10.162;2022-07-12T07:01:00;99953.00;;;19.06;88.60
28588;BME280;15787;49.662;10.162;2022-07-12T07:03:28;99945.16;;;19.19;86.95
28588;BME280;15787;49.662;10.162;2022-07-12T07:05:57;99947.09;;;19.40;86.12
28588;BME280;15787;49.662;10.162;2022-07-12T07:08:25;99952.91;;;19.36;84.79
28588;BME280;15787;49.662;10.162;2022-07-12T07:10:53;99954.38;;;19.68;84.33
28588;BME280;15787;49.662;10.162;2022-07-12T07:13:21;99952.50;;;19.92;83.91
28588;BME280;15787;49.662;10.162;2022-07-12T07:15:48;99959.56;;;20.24;82.05
28588;BME280;15787;49.662;10.162;2022-07-12T07:18:16;99951.06;;;20.15;81.66
28588;BME280;15787;49.662;10.162;2022-07-12T07:20:44;99965.09;;;20.00;80.77
28588;BME280;15787;49.662;10.162;2022-07-12T07:23:14;99968.22;;;20.21;80.37
28588;BME280;15787;49.662;10.162;2022-07-12T07:25:45;99958.31;;;20.16;79.54
28588;BME280;15787;49.662;10.162;2022-07-12T07:28:13;99962.56;;;20.30;80.41
28588;BME280;15787;49.662;10.162;2022-07-12T07:30:48;99958.94;;;20.80;77.65
28588;BME280;15787;49.662;10.162;2022-07-12T07:33:22;99957.63;;;20.90;78.21
28588;BME280;15787;49.662;10.162;2022-07-12T07:35:51;99960.81;;;21.25;77.06
28588;BME280;15787;49.662;10.162;2022-07-12T07:38:21;99971.25;;;21.19;74.61
28588;BME280;15787;49.662;10.162;2022-07-12T07:40:48;99967.59;;;21.51;74.54
28588;BME280;15787;49.662;10.162;2022-07-12T07:43:16;99968.91;;;21.17;73.54
28588;BME280;15787;49.662;10.162;2022-07-12T07:45:45;99961.91;;;21.27;74.31
28588;BME280;15787;49.662;10.162;2022-07-12T07:48:13;99965.81;;;21.77;74.55
28588;BME280;15787;49.662;10.162;2022-07-12T07:50:51;99967.47;;;21.93;72.40
28588;BME280;15787;49.662;10.162;2022-07-12T07:53:20;99962.56;;;21.70;73.81
28588;BME280;15787;49.662;10.162;2022-07-12T07:55:48;99959.75;;;22.23;73.38
28588;BME280;15787;49.662;10.162;2022-07-12T07:58:16;99965.25;;;22.26;71.09
28588;BME280;15787;49.662;10.162;2022-07-12T08:00:44;99968.00;;;22.35;71.42
28588;BME280;15787;49.662;10.162;2022-07-12T08:03:12;99964.91;;;22.77;68.92
28588;BME280;15787;49.662;10.162;2022-07-12T08:05:40;99959.56;;;22.99;69.26
28588;BME280;15787;49.662;10.162;2022-07-12T08:08:08;99953.84;;;22.99;69.01
28588;BME280;15787;49.662;10.162;2022-07-12T08:10:39;99959.59;;;22.85;68.19
28588;BME280;15787;49.662;10.162;2022-07-12T08:13:07;99959.47;;;23.28;68.61
28588;BME280;15787;49.662;10.162;2022-07-12T08:15:35;99957.13;;;22.34;68.77
28588;BME280;15787;49.662;10.162;2022-07-12T08:18:03;99961.66;;;23.19;67.08
28588;BME280;15787;49.662;10.162;2022-07-12T08:20:33;99971.22;;;23.01;65.88
28588;BME280;15787;49.662;10.162;2022-07-12T08:23:11;99967.41;;;23.39;64.69
28588;BME280;15787;49.662;10.162;2022-07-12T08:25:41;99953.59;;;23.92;65.03
28588;BME280;15787;49.662;10.162;2022-07-12T08:28:08;99960.50;;;24.06;64.26
28588;BME280;15787;49.662;10.162;2022-07-12T08:30:36;99963.72;;;24.14;63.67
28588;BME280;15787;49.662;10.162;2022-07-12T08:33:12;99959.91;;;23.56;64.63
28588;BME280;15787;49.662;10.162;2022-07-12T08:35:40;99965.50;;;24.11;63.26
28588;BME280;15787;49.662;10.162;2022-07-12T08:38:08;99959.69;;;24.51;61.69
28588;BME280;15787;49.662;10.162;2022-07-12T08:40:37;99946.34;;;24.37;61.16
28588;BME280;15787;49.662;10.162;2022-07-12T08:43:06;99951.00;;;24.66;60.65
28588;BME280;15787;49.662;10.162;2022-07-12T08:45:34;99949.72;;;24.98;60.05
28588;BME280;15787;49.662;10.162;2022-07-12T08:48:02;99957.41;;;25.18;59.68
28588;BME280;15787;49.662;10.162;2022-07-12T08:50:30;99954.81;;;24.83;59.12
28588;BME280;15787;49.662;10.162;2022-07-12T08:52:58;99953.91;;;23.54;61.29
28588;BME280;15787;49.662;10.162;2022-07-12T08:55:28;99946.63;;;24.71;59.71
28588;BME280;15787;49.662;10.162;2022-07-12T08:57:58;99951.50;;;25.27;59.25
28588;BME280;15787;49.662;10.162;2022-07-12T09:00:28;99951.53;;;25.38;58.87
28588;BME280;15787;49.662;10.162;2022-07-12T09:02:57;99948.28;;;25.56;58.16
28588;BME280;15787;49.662;10.162;2022-07-12T09:05:26;99949.00;;;25.46;58.04
28588;BME280;15787;49.662;10.162;2022-07-12T09:08:02;99954.16;;;25.90;56.79
28588;BME280;15787;49.662;10.162;2022-07-12T09:10:30;99951.34;;;26.01;56.31
28588;BME280;15787;49.662;10.162;2022-07-12T09:12:58;99946.81;;;25.72;56.37
28588;BME280;15787;49.662;10.162;2022-07-12T09:15:28;99947.59;;;25.78;55.94
28588;BME280;15787;49.662;10.162;2022-07-12T09:17:57;99945.75;;;26.56;55.64
28588;BME280;15787;49.662;10.162;2022-07-12T09:20:26;99948.31;;;26.43;54.47
28588;BME280;15787;49.662;10.162;2022-07-12T09:22:56;99952.44;;;27.36;52.70
28588;BME280;15787;49.662;10.162;2022-07-12T09:25:24;99956.41;;;27.17;52.18
28588;BME280;15787;49.662;10.162;2022-07-12T09:27:54;99953.78;;;27.35;52.42
28588;BME280;15787;49.662;10.162;2022-07-12T09:30:23;99954.81;;;27.32;52.53
28588;BME280;15787;49.662;10.162;2022-07-12T09:32:57;99949.88;;;27.33;51.92
28588;BME280;15787;49.662;10.162;2022-07-12T09:35:58;99958.19;;;27.36;52.71
28588;BME280;15787;49.662;10.162;2022-07-12T09:38:38;99934.06;;;26.76;52.44
28588;BME280;15787;49.662;10.162;2022-07-12T09:41:07;99947.03;;;27.16;52.46
28588;BME280;15787;49.662;10.162;2022-07-12T09:43:35;99950.16;;;27.40;52.07
28588;BME280;15787;49.662;10.162;2022-07-12T09:46:02;99948.78;;;27.52;52.31
28588;BME280;15787;49.662;10.162;2022-07-12T09:48:33;99944.94;;;27.06;51.76
28588;BME280;15787;49.662;10.162;2022-07-12T09:51:02;99948.63;;;26.78;51.11
28588;BME280;15787;49.662;10.162;2022-07-12T09:53:32;99945.78;;;26.89;51.66
28588;BME280;15787;49.662;10.162;2022-07-12T09:56:03;99938.44;;;26.66;53.34
28588;BME280;15787;49.662;10.162;2022-07-12T09:58:36;99937.81;;;27.62;51.29
28588;BME280;15787;49.662;10.162;2022-07-12T10:01:07;99939.75;;;26.87;50.45
28588;BME280;15787;49.662;10.162;2022-07-12T10:03:44;99938.22;;;26.98;50.29
28588;BME280;15787;49.662;10.162;2022-07-12T10:06:13;99940.22;;;27.47;49.94
28588;BME280;15787;49.662;10.162;2022-07-12T10:08:43;99939.47;;;27.13;50.41
28588;BME280;15787;49.662;10.162;2022-07-12T10:11:11;99931.66;;;27.19;49.11
28588;BME280;15787;49.662;10.162;2022-07-12T10:14:00;99935.31;;;28.40;47.96
28588;BME280;15787;49.662;10.162;2022-07-12T10:16:29;99928.38;;;28.95;48.68
28588;BME280;15787;49.662;10.162;2022-07-12T10:19:25;99937.28;;;28.62;48.96
28588;BME280;15787;49.662;10.162;2022-07-12T10:21:54;99935.44;;;28.94;48.35
28588;BME280;15787;49.662;10.162;2022-07-12T10:27:30;99922.63;;;28.95;47.80
28588;BME280;15787;49.662;10.162;2022-07-12T10:30:19;99928.47;;;29.38;46.60
28588;BME280;15787;49.662;10.162;2022-07-12T10:32:49;99915.53;;;29.26;48.58
28588;BME280;15787;49.662;10.162;2022-07-12T10:35:21;99917.69;;;27.68;49.34
28588;BME280;15787;49.662;10.162;2022-07-12T10:38:14;99911.88;;;27.10;50.44
28588;BME280;15787;49.662;10.162;2022-07-12T10:40:44;99903.56;;;26.57;51.50
28588;BME280;15787;49.662;10.162;2022-07-12T10:43:13;99909.31;;;27.75;50.63
28588;BME280;15787;49.662;10.162;2022-07-12T10:45:42;99918.84;;;28.00;49.92
28588;BME280;15787;49.662;10.162;2022-07-12T10:48:19;99917.06;;;27.01;50.86
28588;BME280;15787;49.662;10.162;2022-07-12T10:50:54;99907.97;;;26.96;50.25
28588;BME280;15787;49.662;10.162;2022-07-12T10:53:25;99922.50;;;27.26;50.15
28588;BME280;15787;49.662;10.162;2022-07-12T10:56:19;99915.38;;;28.53;49.35
28588;BME280;15787;49.662;10.162;2022-07-12T10:58:56;99910.81;;;28.69;47.97
28588;BME280;15787;49.662;10.162;2022-07-12T11:01:26;99916.63;;;28.63;49.24
28588;BME280;15787;49.662;10.162;2022-07-12T11:03:56;99919.25;;;28.91;48.17
28588;BME280;15787;49.662;10.162;2022-07-12T11:06:25;99921.09;;;28.89;47.93
28588;BME280;15787;49.662;10.162;2022-07-12T11:08:55;99926.84;;;28.89;48.18
28588;BME280;15787;49.662;10.162;2022-07-12T11:11:26;99908.50;;;28.67;47.82
28588;BME280;15787;49.662;10.162;2022-07-12T11:13:55;99918.78;;;29.11;47.10
28588;BME280;15787;49.662;10.162;2022-07-12T11:16:23;99923.91;;;29.48;47.38
28588;BME280;15787;49.662;10.162;2022-07-12T11:18:52;99924.69;;;29.24;46.63
28588;BME280;15787;49.662;10.162;2022-07-12T11:21:20;99923.69;;;28.27;46.57
28588;BME280;15787;49.662;10.162;2022-07-12T11:23:50;99902.75;;;28.67;46.89
28588;BME280;15787;49.662;10.162;2022-07-12T11:26:19;99909.81;;;30.25;46.20
28588;BME280;15787;49.662;10.162;2022-07-12T11:28:47;99911.03;;;29.30;46.14
28588;BME280;15787;49.662;10.162;2022-07-12T11:31:16;99904.19;;;29.76;47.69
28588;BME280;15787;49.662;10.162;2022-07-12T11:33:47;99901.59;;;29.06;46.09
28588;BME280;15787;49.662;10.162;2022-07-12T11:36:18;99899.97;;;29.59;45.76
28588;BME280;15787;49.662;10.162;2022-07-12T11:38:46;99895.06;;;29.05;47.24
28588;BME280;15787;49.662;10.162;2022-07-12T11:41:15;99889.09;;;28.73;46.46
28588;BME280;15787;49.662;10.162;2022-07-12T11:43:43;99889.75;;;28.20;48.17
28588;BME280;15787;49.662;10.162;2022-07-12T11:46:12;99884.31;;;29.35;47.19
28588;BME280;15787;49.662;10.162;2022-07-12T11:48:41;99876.31;;;28.99;47.65
28588;BME280;15787;49.662;10.162;2022-07-12T11:51:11;99878.44;;;29.65;47.21
28588;BME280;15787;49.662;10.162;2022-07-12T11:53:39;99876.09;;;29.64;44.95
28588;BME280;15787;49.662;10.162;2022-07-12T11:56:08;99874.63;;;30.13;45.57
28588;BME280;15787;49.662;10.162;2022-07-12T11:58:38;99878.16;;;29.44;46.04
28588;BME280;15787;49.662;10.162;2022-07-12T12:01:10;99880.63;;;29.59;45.59
28588;BME280;15787;49.662;10.162;2022-07-12T12:03:42;99873.78;;;30.37;45.82
28588;BME280;15787;49.662;10.162;2022-07-12T12:06:10;99883.00;;;29.55;45.25
28588;BME280;15787;49.662;10.162;2022-07-12T12:08:38;99877.34;;;30.05;44.93
28588;BME280;15787;49.662;10.162;2022-07-12T12:11:06;99868.19;;;30.07;45.03
28588;BME280;15787;49.662;10.162;2022-07-12T12:13:34;99877.91;;;30.23;44.71
28588;BME280;15787;49.662;10.162;2022-07-12T12:16:05;99863.53;;;29.85;44.86
28588;BME280;15787;49.662;10.162;2022-07-12T12:18:34;99863.19;;;31.03;43.74
28588;BME280;15787;49.662;10.162;2022-07-12T12:21:04;99858.44;;;31.05;42.29
28588;BME280;15787;49.662;10.162;2022-07-12T12:23:32;99857.97;;;31.27;42.54
28588;BME280;15787;49.662;10.162;2022-07-12T12:26:11;99861.63;;;31.80;41.84
28588;BME280;15787;49.662;10.162;2022-07-12T12:28:40;99850.97;;;31.75;42.50
28588;BME280;15787;49.662;10.162;2022-07-12T12:31:10;99860.75;;;31.20;42.80
28588;BME280;15787;49.662;10.162;2022-07-12T12:33:41;99854.78;;;31.57;42.60
28588;BME280;15787;49.662;10.162;2022-07-12T12:36:15;99845.34;;;32.04;41.38
28588;BME280;15787;49.662;10.162;2022-07-12T12:38:44;99846.34;;;30.94;43.00
28588;BME280;15787;49.662;10.162;2022-07-12T12:41:13;99837.28;;;32.23;42.11
28588;BME280;15787;49.662;10.162;2022-07-12T12:43:41;99838.63;;;31.75;41.46
28588;BME280;15787;49.662;10.162;2022-07-12T12:46:10;99826.81;;;31.26;41.97
28588;BME280;15787;49.662;10.162;2022-07-12T12:48:46;99830.25;;;30.40;42.20
28588;BME280;15787;49.662;10.162;2022-07-12T12:51:15;99831.19;;;31.79;41.41
28588;BME280;15787;49.662;10.162;2022-07-12T12:53:43;99830.25;;;32.52;42.01
28588;BME280;15787;49.662;10.162;2022-07-12T12:56:12;99833.88;;;32.32;40.53
28588;BME280;15787;49.662;10.162;2022-07-12T12:58:41;99832.47;;;31.32;39.96
28588;BME280;15787;49.662;10.162;2022-07-12T13:01:10;99829.66;;;32.12;40.00